Pagrindinis puslapis
METAR-TAF:

METAR-TAF

Oro uostai :

Malė, Maldyvai

platuma: 04-12N, ilguma: 073-32E, Aukštis: 2 m

Dabartinis oras

Ataskaita buvo paskelbta 1 valandą ir 16 minutes, ne 22:00 UTC
Vėjas 6 kt iš Vakarų
Temperatūra 29°C
Drėgmė 74%
Slėgis 1008 hPa
Matomumas 10 km arba daugiau
Mažai debesys ne aukštis 1800 ft
Su prošvaistėmis ne aukštis 27000 ft

METAR: VRMM 192200Z 27006KT 9999 FEW018 BKN270 29/24 Q1008 NOSIG

Laikas: 04:16 (23:16 UTC)

Prognozė

Ataskaita buvo paskelbta 6 valandos ir 16 minutes, ne 17:00 UTC
Prognozė galioja nuo 19 metu 18 UTC su 20 metu 24 UTC
Vėjas 9 kt iš Vakarų
Matomumas 10 km arba daugiau
Išsisklaidę debesys ne aukštis 1800 ft, aukštai iškilę kamuoliniai debesys.
Laikinai
nuo 19 metu 18 UTC su 19 metu 24 UTC
Matomumas: 6000 m
Mažai debesys ne aukštis 1700 ft, Liūtiniai kamuoliniai debesys.
perkūnija, lietus

TAF: VRMM 191700Z 1918/2024 27009KT 9999 SCT018TCU TEMPO 1918/1924 6000 -TSRA FEW017CB

Orai ataskaitas ir orų prognozės (METAR, TAF).

turimą stotys yra geltonos ir raudonos taškus žemėlapyje.

Perkelti pele per norėdami pamatyti stoties vardą.

Tada spustelėkite, norėdami matyti oro stebėjimo ir prognozės.

Norėdami pakeisti žemėlapį: spustelėkite ant žalios mygtukų su juodo kryžiaus žemyn,; žalią mygtuką su brūkšneliu, jei norite nutolinti; arba žalių rodyklių gretimoms žemėlapius.


METAR-TAF: